createdAt,value
2019-03-12T00:00:48.070Z,98702.52
2019-03-12T00:03:17.345Z,98708.72
2019-03-12T00:05:46.587Z,98711.13
2019-03-12T00:08:15.817Z,98714.90
2019-03-12T00:10:45.071Z,98717.89
2019-03-12T00:13:14.329Z,98719.75
2019-03-12T00:15:43.577Z,98725.16
2019-03-12T00:18:12.824Z,98727.28
2019-03-12T00:20:42.097Z,98720.79
2019-03-12T00:23:11.371Z,98732.14
2019-03-12T00:25:40.645Z,98746.20
2019-03-12T00:28:09.906Z,98734.30
2019-03-12T00:30:39.143Z,98760.07
2019-03-12T00:33:08.483Z,98743.91
2019-03-12T00:35:37.769Z,98751.78
2019-03-12T00:38:06.973Z,98765.29
2019-03-12T00:40:36.216Z,98770.98
2019-03-12T00:43:05.466Z,98780.97
2019-03-12T00:45:34.728Z,98789.69
2019-03-12T00:48:03.956Z,98786.38
2019-03-12T00:50:33.214Z,98795.33
2019-03-12T00:53:02.438Z,98799.41
2019-03-12T00:55:31.717Z,98809.25
2019-03-12T00:58:00.947Z,98804.44
2019-03-12T01:00:30.181Z,98809.84
2019-03-12T01:02:59.436Z,98798.25
2019-03-12T01:05:28.669Z,98813.41
2019-03-12T01:07:57.933Z,98831.98
2019-03-12T01:10:27.179Z,98818.74
2019-03-12T01:12:56.443Z,98828.70
2019-03-12T01:15:25.682Z,98827.53
2019-03-12T01:17:54.926Z,98837.32
2019-03-12T01:20:24.193Z,98848.16
2019-03-12T01:22:53.462Z,98853.78
2019-03-12T01:25:22.744Z,98856.44
2019-03-12T01:27:52.007Z,98866.76
2019-03-12T01:30:21.261Z,98872.49
2019-03-12T01:32:50.525Z,98868.74
2019-03-12T01:35:19.769Z,98876.80
2019-03-12T01:37:49.029Z,98883.92
2019-03-12T01:40:18.314Z,98880.75
2019-03-12T01:42:47.576Z,98890.13
2019-03-12T01:45:16.808Z,98892.95
2019-03-12T01:47:46.063Z,98880.02
2019-03-12T01:50:15.433Z,98892.19
2019-03-12T01:52:44.717Z,98889.11
2019-03-12T01:55:13.983Z,98889.38
2019-03-12T01:57:43.234Z,98894.70
2019-03-12T02:00:14.657Z,98901.63
2019-03-12T02:02:43.896Z,98897.55
2019-03-12T02:05:13.151Z,98895.66
2019-03-12T02:07:42.402Z,98906.70
2019-03-12T02:10:11.963Z,98908.55
2019-03-12T02:12:41.237Z,98911.24
2019-03-12T02:15:11.426Z,98911.08
2019-03-12T02:17:40.763Z,98913.06
2019-03-12T02:20:12.254Z,98914.15
2019-03-12T02:22:41.535Z,98928.22
2019-03-12T02:25:12.216Z,98934.17
2019-03-12T02:27:41.434Z,98933.47
2019-03-12T02:30:12.815Z,98936.42
2019-03-12T02:32:44.501Z,98934.35
2019-03-12T02:35:13.042Z,98931.12
2019-03-12T02:37:42.310Z,98934.39
2019-03-12T02:40:11.740Z,98936.30
2019-03-12T02:42:41.016Z,98936.89
2019-03-12T02:45:10.350Z,98928.81
2019-03-12T02:47:39.789Z,98930.97
2019-03-12T02:50:09.947Z,98928.52
2019-03-12T02:52:39.209Z,98928.77
2019-03-12T02:55:08.698Z,98920.36
2019-03-12T02:57:38.850Z,98930.31
2019-03-12T03:00:15.783Z,98941.14
2019-03-12T03:02:45.026Z,98945.19
2019-03-12T03:05:14.387Z,98942.00
2019-03-12T03:07:57.850Z,98947.66
2019-03-12T03:10:27.114Z,98950.63
2019-03-12T03:12:56.479Z,98958.14
2019-03-12T03:15:28.046Z,98959.19
2019-03-12T03:17:57.314Z,98959.66
2019-03-12T03:20:26.542Z,98960.17
2019-03-12T03:22:55.801Z,98968.25
2019-03-12T03:25:25.080Z,98972.01
2019-03-12T03:27:54.326Z,98972.55
2019-03-12T03:30:24.338Z,98968.50
2019-03-12T03:32:53.778Z,98963.13
2019-03-12T03:35:23.016Z,98961.81
2019-03-12T03:38:04.325Z,98950.45
2019-03-12T03:40:33.566Z,98962.06
2019-03-12T03:43:02.805Z,98974.20
2019-03-12T03:45:32.040Z,98963.71
2019-03-12T03:48:01.307Z,98969.42
2019-03-12T03:50:30.541Z,98964.30
2019-03-12T03:52:59.899Z,98960.78
2019-03-12T03:55:29.124Z,98961.28
2019-03-12T03:57:58.558Z,98960.98
2019-03-12T04:00:27.815Z,98961.61
2019-03-12T04:02:57.062Z,98959.11
2019-03-12T04:05:26.377Z,98962.63
2019-03-12T04:07:55.640Z,98961.69
2019-03-12T04:10:25.036Z,98965.20
2019-03-12T04:12:54.264Z,98966.34
2019-03-12T04:15:23.494Z,98973.86
2019-03-12T04:17:52.757Z,98969.62
2019-03-12T04:20:22.048Z,98969.88
2019-03-12T04:22:51.319Z,98975.84
2019-03-12T04:25:20.550Z,98968.00
2019-03-12T04:27:49.845Z,98971.50
2019-03-12T04:30:19.221Z,98967.72
2019-03-12T04:32:48.454Z,98968.27
2019-03-12T04:35:18.674Z,98963.67
2019-03-12T04:37:47.992Z,98964.30
2019-03-12T04:40:17.255Z,98966.20
2019-03-12T04:42:46.524Z,98968.88
2019-03-12T04:45:16.294Z,98968.89
2019-03-12T04:47:45.625Z,98973.20
2019-03-12T04:50:15.104Z,98969.95
2019-03-12T04:52:44.364Z,98974.27
2019-03-12T04:55:13.839Z,98979.08
2019-03-12T04:57:43.134Z,98974.48
2019-03-12T05:00:14.658Z,98964.84
2019-03-12T05:02:43.948Z,98972.92
2019-03-12T05:05:13.285Z,98972.66
2019-03-12T05:07:42.534Z,98968.88
2019-03-12T05:10:12.610Z,98977.95
2019-03-12T05:12:41.896Z,98977.16
2019-03-12T05:15:12.469Z,98972.84
2019-03-12T05:17:41.984Z,98971.52
2019-03-12T05:20:12.779Z,98973.36
2019-03-12T05:22:42.034Z,98967.70
2019-03-12T05:25:11.893Z,98965.50
2019-03-12T05:27:41.200Z,98968.78
2019-03-12T05:30:13.337Z,98970.97
2019-03-12T05:32:42.625Z,98968.27
2019-03-12T05:35:12.176Z,98970.23
2019-03-12T05:37:41.484Z,98984.53
2019-03-12T05:40:11.018Z,98978.87
2019-03-12T05:42:47.134Z,98973.20
2019-03-12T05:45:16.528Z,98968.56
2019-03-12T05:47:45.784Z,98972.60
2019-03-12T05:50:15.065Z,98978.00
2019-03-12T05:52:44.352Z,98976.63
2019-03-12T05:55:14.403Z,98980.66
2019-03-12T05:57:44.334Z,98983.64
2019-03-12T06:00:15.090Z,98982.81
2019-03-12T06:02:44.527Z,98987.09
2019-03-12T06:05:14.688Z,98987.94
2019-03-12T06:07:44.369Z,98984.16
2019-03-12T06:10:14.481Z,98986.00
2019-03-12T06:12:44.103Z,98986.59
2019-03-12T06:15:13.726Z,98987.09
2019-03-12T06:17:43.164Z,98982.27
2019-03-12T06:20:12.548Z,98972.51
2019-03-12T06:22:42.078Z,98987.34
2019-03-12T06:25:11.598Z,98985.19
2019-03-12T06:27:40.993Z,98986.05
2019-03-12T06:30:11.429Z,98996.30
2019-03-12T06:32:50.438Z,98995.16
2019-03-12T06:35:28.851Z,98994.36
2019-03-12T06:38:07.005Z,99003.79
2019-03-12T06:40:53.528Z,99005.64
2019-03-12T06:43:50.152Z,99008.57
2019-03-12T06:46:30.126Z,99012.30
2019-03-12T06:49:24.620Z,99003.11
2019-03-12T06:52:11.582Z,99006.62
2019-03-12T06:54:52.239Z,98994.48
2019-03-12T06:57:46.743Z,98989.61
2019-03-12T07:00:41.264Z,98998.12
2019-03-12T07:03:32.429Z,98997.56
2019-03-12T07:06:26.896Z,99002.73
2019-03-12T07:09:15.136Z,99004.52
2019-03-12T07:12:03.959Z,99004.52
2019-03-12T07:14:40.889Z,99002.05
2019-03-12T07:17:14.671Z,98997.66
2019-03-12T07:20:20.848Z,99001.91
2019-03-12T07:23:07.565Z,99002.48
2019-03-12T07:25:55.760Z,98997.27
2019-03-12T07:28:50.944Z,98993.59
2019-03-12T07:31:48.099Z,98996.11
2019-03-12T07:34:37.159Z,98988.63
2019-03-12T07:37:28.167Z,98986.91
2019-03-12T07:40:20.573Z,98984.76
2019-03-12T07:42:55.869Z,98985.67
2019-03-12T07:45:44.224Z,98973.83
2019-03-12T07:48:31.110Z,98979.15
2019-03-12T07:51:13.821Z,98973.03
2019-03-12T07:54:08.075Z,98966.88
2019-03-12T07:56:51.328Z,98958.02
2019-03-12T07:59:37.543Z,98959.41
2019-03-12T08:02:20.345Z,98957.44
2019-03-12T08:05:17.577Z,98957.80
2019-03-12T08:08:04.438Z,98959.88
2019-03-12T08:10:44.668Z,98958.03
2019-03-12T08:13:23.895Z,98948.80
2019-03-12T08:16:01.190Z,98950.00
2019-03-12T08:18:45.868Z,98942.92
2019-03-12T08:21:32.679Z,98947.78
2019-03-12T08:24:20.138Z,98938.58
2019-03-12T08:27:30.494Z,98935.22
2019-03-12T08:30:09.411Z,98929.86
2019-03-12T08:32:55.557Z,98934.32
2019-03-12T08:35:43.773Z,98930.89
2019-03-12T08:38:46.274Z,98924.27
2019-03-12T08:41:31.634Z,98923.72
2019-03-12T08:44:31.946Z,98911.81
2019-03-12T08:47:29.642Z,98911.65
2019-03-12T08:50:23.884Z,98902.50
2019-03-12T08:53:10.836Z,98904.42
2019-03-12T08:56:14.228Z,98903.80
2019-03-12T08:59:05.524Z,98905.38
2019-03-12T09:01:53.702Z,98902.14
2019-03-12T09:04:36.448Z,98896.74
2019-03-12T09:07:27.474Z,98889.54
2019-03-12T09:10:24.770Z,98889.80
2019-03-12T09:13:12.958Z,98878.52
2019-03-12T09:16:06.250Z,98878.70
2019-03-12T09:18:53.150Z,98875.59
2019-03-12T09:21:43.109Z,98867.13
2019-03-12T09:24:40.111Z,98871.88
2019-03-12T09:27:31.097Z,98873.06
2019-03-12T09:30:09.419Z,98871.55
2019-03-12T09:32:57.510Z,98872.93
2019-03-12T09:35:51.489Z,98859.17
2019-03-12T09:38:38.371Z,98852.48
2019-03-12T09:41:22.270Z,98856.09
2019-03-12T09:44:10.487Z,98845.17
2019-03-12T09:47:04.479Z,98850.11
2019-03-12T09:49:38.686Z,98834.33
2019-03-12T09:52:12.655Z,98827.39
2019-03-12T09:55:06.678Z,98831.55
2019-03-12T09:57:43.578Z,98817.84
2019-03-12T10:00:21.924Z,98813.71
2019-03-12T10:03:11.507Z,98809.60
2019-03-12T10:06:14.931Z,98799.72
2019-03-12T10:08:54.421Z,98797.96
2019-03-12T10:11:31.567Z,98792.72
2019-03-12T10:14:17.220Z,98789.53
2019-03-12T10:17:04.199Z,98780.27
2019-03-12T10:19:50.481Z,98774.18
2019-03-12T10:22:37.142Z,98774.78
2019-03-12T10:25:25.591Z,98773.98
2019-03-12T10:28:29.034Z,98771.75
2019-03-12T10:31:17.837Z,98763.81
2019-03-12T10:33:55.579Z,98762.24
2019-03-12T10:36:32.500Z,98757.01
2019-03-12T10:40:01.956Z,98748.30
2019-03-12T10:42:52.973Z,98756.27
2019-03-12T10:45:35.619Z,98745.36
2019-03-12T10:48:04.873Z,98748.45
2019-03-12T10:50:34.140Z,98742.30
2019-03-12T10:53:03.430Z,98738.55
2019-03-12T10:55:32.744Z,98734.19
2019-03-12T10:58:01.997Z,98731.88
2019-03-12T11:00:31.256Z,98723.87
2019-03-12T11:03:00.503Z,98717.75
2019-03-12T11:05:29.790Z,98720.77
2019-03-12T11:07:59.072Z,98704.41
2019-03-12T11:10:28.414Z,98691.95
2019-03-12T11:12:57.657Z,98696.06
2019-03-12T11:15:26.917Z,98687.03
2019-03-12T11:17:56.203Z,98678.45
2019-03-12T11:20:25.574Z,98664.40
2019-03-12T11:22:54.846Z,98670.30
2019-03-12T11:25:27.923Z,98667.49
2019-03-12T11:27:55.162Z,98653.31
2019-03-12T11:30:24.552Z,98656.20
2019-03-12T11:32:53.832Z,98647.09
2019-03-12T11:35:23.262Z,98651.88
2019-03-12T11:37:52.583Z,98648.09
2019-03-12T11:40:22.071Z,98636.18
2019-03-12T11:42:51.350Z,98635.95
2019-03-12T11:45:31.173Z,98633.48
2019-03-12T11:47:51.674Z,98620.75
2019-03-12T11:50:21.453Z,98618.66
2019-03-12T11:52:56.900Z,98615.08
2019-03-12T11:55:23.646Z,98628.30
2019-03-12T11:57:52.945Z,98604.98
2019-03-12T12:00:26.450Z,98606.41
2019-03-12T12:03:00.337Z,98589.16
2019-03-12T12:05:26.870Z,98578.51
2019-03-12T12:07:56.325Z,98585.20
2019-03-12T12:10:26.155Z,98575.67
2019-03-12T12:12:55.456Z,98577.83
2019-03-12T12:15:24.827Z,98559.20
2019-03-12T12:17:54.091Z,98560.00
2019-03-12T12:20:29.609Z,98556.03
2019-03-12T12:22:54.352Z,98545.27
2019-03-12T12:25:23.630Z,98534.82
2019-03-12T12:27:52.931Z,98528.35
2019-03-12T12:30:22.242Z,98518.75
2019-03-12T12:32:51.531Z,98537.89
2019-03-12T12:35:20.879Z,98509.57
2019-03-12T12:37:50.256Z,98495.40
2019-03-12T12:40:19.640Z,98492.82
2019-03-12T12:42:48.934Z,98478.16
2019-03-12T12:45:19.089Z,98482.35
2019-03-12T12:47:48.362Z,98473.02
2019-03-12T12:50:17.733Z,98476.55
2019-03-12T12:52:46.971Z,98452.02
2019-03-12T12:55:16.414Z,98452.48
2019-03-12T12:57:45.695Z,98450.88
2019-03-12T13:00:17.487Z,98434.50
2019-03-12T13:02:46.751Z,98432.80
2019-03-12T13:05:16.159Z,98416.96
2019-03-12T13:07:45.409Z,98420.61
2019-03-12T13:10:20.235Z,98401.26
2019-03-12T13:12:49.492Z,98404.56
2019-03-12T13:15:18.763Z,98402.37
2019-03-12T13:17:48.130Z,98394.28
2019-03-12T13:20:17.371Z,98389.67
2019-03-12T13:22:46.639Z,98380.92
2019-03-12T13:25:16.093Z,98373.98
2019-03-12T13:27:45.418Z,98369.63
2019-03-12T13:30:16.662Z,98348.27
2019-03-12T13:32:45.927Z,98347.79
2019-03-12T13:35:15.685Z,98341.19
2019-03-12T13:37:45.053Z,98334.34
2019-03-12T13:40:15.526Z,98340.78
2019-03-12T13:42:44.815Z,98335.53
2019-03-12T13:45:15.260Z,98323.02
2019-03-12T13:47:44.881Z,98321.05
2019-03-12T13:50:15.045Z,98313.92
2019-03-12T13:52:44.467Z,98302.12
2019-03-12T13:55:14.679Z,98293.19
2019-03-12T13:57:44.400Z,98288.64
2019-03-12T14:00:18.310Z,98284.81
2019-03-12T14:02:47.844Z,98274.58
2019-03-12T14:05:17.201Z,98275.25
2019-03-12T14:07:46.660Z,98274.99
2019-03-12T14:10:20.394Z,98274.72
2019-03-12T14:12:49.963Z,98269.16
2019-03-12T14:15:27.448Z,98266.50
2019-03-12T14:17:56.795Z,98263.10
2019-03-12T14:20:45.670Z,98261.01
2019-03-12T14:23:17.494Z,98261.78
2019-03-12T14:25:47.150Z,98257.97
2019-03-12T14:28:16.386Z,98248.20
2019-03-12T14:30:45.739Z,98228.17
2019-03-12T14:33:15.098Z,98245.47
2019-03-12T14:35:51.351Z,98228.61
2019-03-12T14:38:15.576Z,98233.86
2019-03-12T14:40:44.839Z,98209.78
2019-03-12T14:43:14.085Z,98197.27
2019-03-12T14:45:49.718Z,98185.02
2019-03-12T14:48:43.537Z,98193.86
2019-03-12T14:51:22.973Z,98191.59
2019-03-12T14:53:53.309Z,98181.14
2019-03-12T14:56:23.139Z,98178.41
2019-03-12T14:58:52.401Z,98176.02
2019-03-12T15:01:21.653Z,98179.30
2019-03-12T15:03:50.926Z,98165.45
2019-03-12T15:06:20.174Z,98150.25
2019-03-12T15:08:49.402Z,98133.67
2019-03-12T15:11:18.660Z,98128.35
2019-03-12T15:13:47.885Z,98122.20
2019-03-12T15:16:17.154Z,98127.85
2019-03-12T15:18:52.323Z,98119.46
2019-03-12T15:21:21.605Z,98108.92
2019-03-12T15:23:50.838Z,98112.11
2019-03-12T15:26:20.074Z,98100.77
2019-03-12T15:28:49.339Z,98103.48
2019-03-12T15:31:18.579Z,98091.67
2019-03-12T15:33:48.017Z,98091.00
2019-03-12T15:36:17.302Z,98086.45
2019-03-12T15:38:46.552Z,98088.39
2019-03-12T15:41:15.823Z,98072.48
2019-03-12T15:43:45.148Z,98064.64
2019-03-12T15:46:14.388Z,98055.13
2019-03-12T15:48:43.669Z,98051.27
2019-03-12T15:51:12.982Z,98045.92
2019-03-12T15:53:42.219Z,98033.55
2019-03-12T15:56:11.573Z,98026.97
2019-03-12T15:58:40.811Z,98014.27
2019-03-12T16:01:10.126Z,98004.52
2019-03-12T16:03:41.715Z,98007.23
2019-03-12T16:06:10.438Z,98003.49
2019-03-12T16:08:39.710Z,97990.20
2019-03-12T16:11:08.975Z,97985.23
2019-03-12T16:13:38.341Z,97958.20
2019-03-12T16:16:07.597Z,97958.20
2019-03-12T16:18:36.852Z,97944.15
2019-03-12T16:21:06.145Z,97931.02
2019-03-12T16:23:35.424Z,97927.05
2019-03-12T16:26:04.778Z,97913.77
2019-03-12T16:28:34.061Z,97905.37
2019-03-12T16:31:03.322Z,97904.25
2019-03-12T16:33:32.588Z,97910.61
2019-03-12T16:36:01.907Z,97905.94
2019-03-12T16:38:31.178Z,97901.74
2019-03-12T16:41:02.930Z,97896.98
2019-03-12T16:43:32.332Z,97903.00
2019-03-12T16:46:01.628Z,97887.45
2019-03-12T16:48:30.887Z,97882.92
2019-03-12T16:51:00.136Z,97877.61
2019-03-12T16:53:29.402Z,97877.27
2019-03-12T16:55:58.629Z,97863.76
2019-03-12T16:58:27.939Z,97864.77
2019-03-12T17:00:57.184Z,97853.22
2019-03-12T17:03:26.436Z,97842.77
2019-03-12T17:05:55.694Z,97839.13
2019-03-12T17:08:24.978Z,97834.17
2019-03-12T17:11:02.073Z,97830.30
2019-03-12T17:13:25.231Z,97829.74
2019-03-12T17:15:55.158Z,97831.64
2019-03-12T17:18:24.486Z,97841.64
2019-03-12T17:20:53.834Z,97831.20
2019-03-12T17:23:24.255Z,97829.13
2019-03-12T17:25:53.693Z,97811.02
2019-03-12T17:28:22.970Z,97798.78
2019-03-12T17:30:52.245Z,97802.65
2019-03-12T17:33:21.520Z,97797.20
2019-03-12T17:35:52.569Z,97796.41
2019-03-12T17:38:21.898Z,97792.89
2019-03-12T17:40:51.172Z,97789.95
2019-03-12T17:43:20.468Z,97791.55
2019-03-12T17:45:49.766Z,97783.94
2019-03-12T17:48:19.396Z,97777.50
2019-03-12T17:50:48.668Z,97770.45
2019-03-12T17:53:17.941Z,97768.08
2019-03-12T17:55:47.227Z,97762.98
2019-03-12T17:58:16.488Z,97755.97
2019-03-12T18:00:45.791Z,97757.77
2019-03-12T18:03:15.151Z,97749.63
2019-03-12T18:05:44.766Z,97750.66
2019-03-12T18:08:14.093Z,97739.88
2019-03-12T18:10:43.375Z,97724.70
2019-03-12T18:13:12.702Z,97735.80
2019-03-12T18:15:41.970Z,97722.10
2019-03-12T18:18:11.290Z,97712.70
2019-03-12T18:20:43.748Z,97708.41
2019-03-12T18:23:11.615Z,97705.00
2019-03-12T18:25:40.935Z,97698.33
2019-03-12T18:28:10.304Z,97694.57
2019-03-12T18:30:39.935Z,97687.58
2019-03-12T18:33:09.203Z,97687.34
2019-03-12T18:35:38.490Z,97672.84
2019-03-12T18:38:07.807Z,97661.30
2019-03-12T18:40:37.141Z,97661.99
2019-03-12T18:43:06.620Z,97660.53
2019-03-12T18:45:35.898Z,97654.52
2019-03-12T18:48:05.267Z,97642.75
2019-03-12T18:50:34.603Z,97646.83
2019-03-12T18:53:03.996Z,97632.34
2019-03-12T18:55:44.692Z,97635.27
2019-03-12T18:58:13.987Z,97623.52
2019-03-12T19:00:48.371Z,97620.78
2019-03-12T19:03:17.722Z,97616.48
2019-03-12T19:05:48.160Z,97613.67
2019-03-12T19:08:18.992Z,97616.94
2019-03-12T19:10:48.659Z,97604.51
2019-03-12T19:13:20.248Z,97596.59
2019-03-12T19:15:49.926Z,97588.44
2019-03-12T19:18:20.732Z,97596.34
2019-03-12T19:20:51.727Z,97571.00
2019-03-12T19:23:22.441Z,97575.30
2019-03-12T19:25:53.300Z,97573.71
2019-03-12T19:28:23.402Z,97566.38
2019-03-12T19:31:05.695Z,97568.74
2019-03-12T19:33:36.615Z,97563.09
2019-03-12T19:36:06.409Z,97558.09
2019-03-12T19:38:36.564Z,97550.62
2019-03-12T19:41:06.075Z,97535.94
2019-03-12T19:43:36.327Z,97525.08
2019-03-12T19:46:06.036Z,97522.61
2019-03-12T19:48:35.497Z,97509.80
2019-03-12T19:51:05.105Z,97493.28
2019-03-12T19:53:34.652Z,97500.07
2019-03-12T19:56:05.671Z,97496.11
2019-03-12T19:58:35.074Z,97481.86
2019-03-12T20:01:05.287Z,97482.22
2019-03-12T20:03:34.653Z,97480.30
2019-03-12T20:06:03.961Z,97477.33
2019-03-12T20:08:33.251Z,97470.80
2019-03-12T20:11:58.615Z,97459.15
2019-03-12T20:15:24.220Z,97452.89
2019-03-12T20:18:38.626Z,97448.83
2019-03-12T20:21:38.037Z,97435.70
2019-03-12T20:24:49.454Z,97432.08
2019-03-12T20:27:46.865Z,97426.98
2019-03-12T20:31:11.483Z,97419.87
2019-03-12T20:34:21.370Z,97414.21
2019-03-12T20:37:45.627Z,97412.44
2019-03-12T20:41:00.868Z,97401.80
2019-03-12T20:44:25.258Z,97391.17
2019-03-12T20:47:39.320Z,97404.74
2019-03-12T20:50:48.125Z,97408.78
2019-03-12T20:54:14.189Z,97391.63
2019-03-12T20:57:51.655Z,97388.91
2019-03-12T21:01:09.351Z,97388.98
2019-03-12T21:04:31.559Z,97378.73
2019-03-12T21:07:38.438Z,97376.69
2019-03-12T21:10:54.254Z,97374.20
2019-03-12T21:14:25.628Z,97361.54
2019-03-12T21:17:47.694Z,97364.93
2019-03-12T21:21:08.802Z,97347.78
2019-03-12T21:24:05.363Z,97345.47
2019-03-12T21:27:07.942Z,97339.19
2019-03-12T21:29:45.393Z,97326.48
2019-03-12T21:32:15.888Z,97305.44
2019-03-12T21:34:45.326Z,97297.75
2019-03-12T21:37:14.711Z,97289.83
2019-03-12T21:39:54.436Z,97282.48
2019-03-12T21:42:16.224Z,97272.92
2019-03-12T21:44:45.778Z,97277.64
2019-03-12T21:47:15.434Z,97273.11
2019-03-12T21:49:45.331Z,97268.77
2019-03-12T21:52:14.730Z,97259.98
2019-03-12T21:54:45.114Z,97244.65
2019-03-12T21:57:15.087Z,97231.70
2019-03-12T21:59:45.210Z,97235.31
2019-03-12T22:02:15.065Z,97233.48
2019-03-12T22:04:45.218Z,97228.75
2019-03-12T22:07:15.098Z,97208.20
2019-03-12T22:09:44.545Z,97219.47
2019-03-12T22:12:13.902Z,97220.60
2019-03-12T22:14:43.464Z,97200.73
2019-03-12T22:17:13.046Z,97203.23
2019-03-12T22:19:53.467Z,97187.58
2019-03-12T22:22:27.611Z,97189.16
2019-03-12T22:24:57.009Z,97176.95
2019-03-12T22:27:26.671Z,97165.23
2019-03-12T22:29:56.011Z,97165.50
2019-03-12T22:32:25.481Z,97166.09
2019-03-12T22:34:54.907Z,97159.55
2019-03-12T22:37:24.569Z,97141.52
2019-03-12T22:39:53.958Z,97139.39
2019-03-12T22:42:23.458Z,97131.72
2019-03-12T22:44:52.901Z,97130.14
2019-03-12T22:47:22.180Z,97120.73
2019-03-12T22:49:51.919Z,97125.05
2019-03-12T22:52:21.287Z,97120.06
2019-03-12T22:54:50.585Z,97119.19
2019-03-12T22:57:19.926Z,97107.54
2019-03-12T22:59:49.218Z,97103.91
2019-03-12T23:02:19.142Z,97100.38
2019-03-12T23:04:48.798Z,97099.62
2019-03-12T23:07:18.147Z,97091.13
2019-03-12T23:09:47.557Z,97095.80
2019-03-12T23:12:17.331Z,97086.49
2019-03-12T23:14:46.558Z,97094.66
2019-03-12T23:17:15.820Z,97081.85
2019-03-12T23:19:45.093Z,97080.14
2019-03-12T23:22:14.474Z,97076.08
2019-03-12T23:24:44.235Z,97060.16
2019-03-12T23:27:15.997Z,97053.99
2019-03-12T23:29:45.531Z,97054.93
2019-03-12T23:32:15.963Z,97048.16
2019-03-12T23:34:46.586Z,97051.63
2019-03-12T23:37:16.470Z,97047.73
2019-03-12T23:39:45.734Z,97045.45
2019-03-12T23:42:29.947Z,97058.55
2019-03-12T23:44:59.282Z,97047.16
2019-03-12T23:47:28.619Z,97055.35
2019-03-12T23:49:57.918Z,97059.79
2019-03-12T23:52:27.587Z,97055.89
2019-03-12T23:54:56.969Z,97064.08
2019-03-12T23:57:26.203Z,97058.39
2019-03-12T23:59:55.497Z,97069.69
